sensor_id;sensor_type;location;lat;lon;timestamp;pressure;altitude;pressure_sealevel;temperature;humidity
50592;BME280;36548;50.506;30.834;2023-04-16T00:00:27;100549.33;;;9.94;68.82
50592;BME280;36548;50.506;30.834;2023-04-16T00:01:43;100551.13;;;10.09;69.54
50592;BME280;36548;50.506;30.834;2023-04-16T00:02:54;100546.84;;;9.90;69.89
50592;BME280;36548;50.506;30.834;2023-04-16T00:04:09;100540.53;;;9.92;70.13
50592;BME280;36548;50.506;30.834;2023-04-16T00:05:18;100556.11;;;9.69;70.43
50592;BME280;36548;50.506;30.834;2023-04-16T00:06:29;100548.13;;;9.51;70.76
50592;BME280;36548;50.506;30.834;2023-04-16T00:07:39;100554.52;;;9.49;71.69
50592;BME280;36548;50.506;30.834;2023-04-16T00:08:54;100542.27;;;9.61;71.64
50592;BME280;36548;50.506;30.834;2023-04-16T00:10:05;100555.14;;;9.54;71.78
50592;BME280;36548;50.506;30.834;2023-04-16T00:11:22;100552.36;;;9.71;71.71
50592;BME280;36548;50.506;30.834;2023-04-16T00:12:31;100559.64;;;9.69;71.39
50592;BME280;36548;50.506;30.834;2023-04-16T00:13:46;100553.33;;;9.86;71.21
50592;BME280;36548;50.506;30.834;2023-04-16T00:14:56;100557.22;;;9.81;71.06
50592;BME280;36548;50.506;30.834;2023-04-16T00:16:11;100553.33;;;9.86;70.61
50592;BME280;36548;50.506;30.834;2023-04-16T00:17:21;100549.45;;;9.76;70.87
50592;BME280;36548;50.506;30.834;2023-04-16T00:18:30;100560.42;;;9.87;71.18
50592;BME280;36548;50.506;30.834;2023-04-16T00:19:40;100567.25;;;9.93;71.27
50592;BME280;36548;50.506;30.834;2023-04-16T00:21:15;100554.42;;;10.14;70.52
50592;BME280;36548;50.506;30.834;2023-04-16T00:22:25;100553.14;;;10.05;70.24
50592;BME280;36548;50.506;30.834;2023-04-16T00:23:34;100561.19;;;10.05;70.28
50592;BME280;36548;50.506;30.834;2023-04-16T00:24:50;100548.87;;;10.17;70.33
50592;BME280;36548;50.506;30.834;2023-04-16T00:26:00;100557.47;;;10.08;70.50
50592;BME280;36548;50.506;30.834;2023-04-16T00:27:09;100555.36;;;10.13;70.03
50592;BME280;36548;50.506;30.834;2023-04-16T00:28:25;100558.31;;;10.24;70.01
50592;BME280;36548;50.506;30.834;2023-04-16T00:29:35;100565.06;;;10.16;69.91
50592;BME280;36548;50.506;30.834;2023-04-16T00:30:45;100566.89;;;10.15;69.96
50592;BME280;36548;50.506;30.834;2023-04-16T00:32:00;100558.73;;;10.33;69.84
50592;BME280;36548;50.506;30.834;2023-04-16T00:33:11;100561.16;;;10.21;69.25
50592;BME280;36548;50.506;30.834;2023-04-16T00:34:26;100558.05;;;10.13;69.30
50592;BME280;36548;50.506;30.834;2023-04-16T00:35:36;100557.29;;;9.95;70.09
50592;BME280;36548;50.506;30.834;2023-04-16T00:36:45;100556.89;;;9.87;70.33
50592;BME280;36548;50.506;30.834;2023-04-16T00:37:55;100566.30;;;9.78;70.48
50592;BME280;36548;50.506;30.834;2023-04-16T00:39:10;100555.58;;;9.78;70.96
50592;BME280;36548;50.506;30.834;2023-04-16T00:40:19;100560.59;;;9.68;70.82
50592;BME280;36548;50.506;30.834;2023-04-16T00:41:37;100557.12;;;9.82;70.88
50592;BME280;36548;50.506;30.834;2023-04-16T00:42:46;100558.61;;;9.72;70.65
50592;BME280;36548;50.506;30.834;2023-04-16T00:44:01;100556.89;;;9.87;70.60
50592;BME280;36548;50.506;30.834;2023-04-16T00:45:10;100563.88;;;9.73;70.34
50592;BME280;36548;50.506;30.834;2023-04-16T00:46:22;100558.25;;;9.78;70.42
50592;BME280;36548;50.506;30.834;2023-04-16T00:47:38;100557.56;;;9.90;70.88
50592;BME280;36548;50.506;30.834;2023-04-16T00:48:48;100561.38;;;9.70;70.78
50592;BME280;36548;50.506;30.834;2023-04-16T00:50:01;100562.67;;;9.79;71.12
50592;BME280;36548;50.506;30.834;2023-04-16T00:51:18;100561.03;;;9.93;71.19
50592;BME280;36548;50.506;30.834;2023-04-16T00:52:37;100562.16;;;9.88;71.38
50592;BME280;36548;50.506;30.834;2023-04-16T00:53:46;100557.14;;;9.98;70.69
50592;BME280;36548;50.506;30.834;2023-04-16T00:54:56;100558.08;;;9.97;70.65
50592;BME280;36548;50.506;30.834;2023-04-16T00:56:06;100565.00;;;10.01;70.29
50592;BME280;36548;50.506;30.834;2023-04-16T00:57:23;100553.14;;;10.05;69.91
50592;BME280;36548;50.506;30.834;2023-04-16T00:58:33;100564.48;;;9.95;70.54
50592;BME280;36548;50.506;30.834;2023-04-16T00:59:49;100556.44;;;10.11;70.75
50592;BME280;36548;50.506;30.834;2023-04-16T01:01:01;100570.27;;;10.03;70.53
50592;BME280;36548;50.506;30.834;2023-04-16T01:02:10;100564.20;;;9.99;70.65
50592;BME280;36548;50.506;30.834;2023-04-16T01:03:20;100564.39;;;9.96;70.22
50592;BME280;36548;50.506;30.834;2023-04-16T01:04:30;100562.92;;;9.90;70.31
50592;BME280;36548;50.506;30.834;2023-04-16T01:05:40;100561.28;;;9.88;70.74
50592;BME280;36548;50.506;30.834;2023-04-16T01:06:49;100561.98;;;9.92;70.61
50592;BME280;36548;50.506;30.834;2023-04-16T01:07:59;100564.75;;;9.90;70.54
50592;BME280;36548;50.506;30.834;2023-04-16T01:09:16;100563.78;;;10.07;70.86
50592;BME280;36548;50.506;30.834;2023-04-16T01:10:25;100564.91;;;10.03;70.36
50592;BME280;36548;50.506;30.834;2023-04-16T01:11:34;100562.23;;;10.03;70.55
50592;BME280;36548;50.506;30.834;2023-04-16T01:12:52;100566.70;;;10.18;70.81
50592;BME280;36548;50.506;30.834;2023-04-16T01:14:03;100563.50;;;10.12;70.41
50592;BME280;36548;50.506;30.834;2023-04-16T01:15:13;100565.94;;;10.16;70.16
50592;BME280;36548;50.506;30.834;2023-04-16T01:16:23;100570.18;;;10.20;69.55
50592;BME280;36548;50.506;30.834;2023-04-16T01:17:34;100567.65;;;10.17;69.46
50592;BME280;36548;50.506;30.834;2023-04-16T01:18:49;100569.05;;;10.24;69.78
50592;BME280;36548;50.506;30.834;2023-04-16T01:20:00;100569.84;;;10.11;70.01
50592;BME280;36548;50.506;30.834;2023-04-16T01:21:09;100571.06;;;10.05;70.26
50592;BME280;36548;50.506;30.834;2023-04-16T01:22:18;100570.64;;;9.97;70.43
50592;BME280;36548;50.506;30.834;2023-04-16T01:23:28;100568.29;;;9.90;70.41
50592;BME280;36548;50.506;30.834;2023-04-16T01:24:44;100570.53;;;9.82;70.46
50592;BME280;36548;50.506;30.834;2023-04-16T01:25:55;100566.27;;;9.46;71.59
50592;BME280;36548;50.506;30.834;2023-04-16T01:27:05;100575.47;;;9.58;71.93
50592;BME280;36548;50.506;30.834;2023-04-16T01:28:21;100567.95;;;9.81;72.41
50592;BME280;36548;50.506;30.834;2023-04-16T01:29:31;100571.66;;;9.78;72.32
50592;BME280;36548;50.506;30.834;2023-04-16T01:30:41;100572.78;;;9.74;71.52
50592;BME280;36548;50.506;30.834;2023-04-16T01:31:56;100569.57;;;9.99;71.68
50592;BME280;36548;50.506;30.834;2023-04-16T01:33:11;100562.74;;;9.94;71.53
50592;BME280;36548;50.506;30.834;2023-04-16T01:34:27;100560.91;;;10.10;71.05
50592;BME280;36548;50.506;30.834;2023-04-16T01:35:38;100563.45;;;9.97;71.24
50592;BME280;36548;50.506;30.834;2023-04-16T01:36:48;100562.41;;;10.00;71.31
50592;BME280;36548;50.506;30.834;2023-04-16T01:38:06;100558.47;;;10.21;70.86
50592;BME280;36548;50.506;30.834;2023-04-16T01:39:16;100567.69;;;10.01;70.50
50592;BME280;36548;50.506;30.834;2023-04-16T01:40:34;100560.30;;;10.21;70.78
50592;BME280;36548;50.506;30.834;2023-04-16T01:41:44;100560.67;;;10.15;70.34
50592;BME280;36548;50.506;30.834;2023-04-16T01:42:53;100559.70;;;10.16;70.14
50592;BME280;36548;50.506;30.834;2023-04-16T01:44:03;100556.25;;;10.14;69.96
50592;BME280;36548;50.506;30.834;2023-04-16T01:45:12;100557.10;;;10.14;69.93
50592;BME280;36548;50.506;30.834;2023-04-16T01:46:27;100559.88;;;10.13;69.92
50592;BME280;36548;50.506;30.834;2023-04-16T01:47:44;100552.69;;;10.13;70.12
50592;BME280;36548;50.506;30.834;2023-04-16T01:48:54;100568.20;;;9.92;70.80
50592;BME280;36548;50.506;30.834;2023-04-16T01:50:05;100559.39;;;9.90;70.37
50592;BME280;36548;50.506;30.834;2023-04-16T01:51:14;100560.70;;;9.83;70.66
50592;BME280;36548;50.506;30.834;2023-04-16T01:52:29;100564.94;;;9.87;71.13
50592;BME280;36548;50.506;30.834;2023-04-16T01:53:38;100561.73;;;9.80;71.28
50592;BME280;36548;50.506;30.834;2023-04-16T01:54:48;100561.73;;;9.80;71.28
50592;BME280;36548;50.506;30.834;2023-04-16T01:56:05;100562.50;;;9.98;70.85
50592;BME280;36548;50.506;30.834;2023-04-16T01:57:14;100570.20;;;9.88;71.23
50592;BME280;36548;50.506;30.834;2023-04-16T01:58:31;100564.82;;;10.04;71.16
50592;BME280;36548;50.506;30.834;2023-04-16T01:59:42;100564.48;;;9.95;71.19
50592;BME280;36548;50.506;30.834;2023-04-16T02:00:58;100569.66;;;10.14;71.17
50592;BME280;36548;50.506;30.834;2023-04-16T02:02:09;100570.80;;;10.10;70.96
50592;BME280;36548;50.506;30.834;2023-04-16T02:03:29;100564.39;;;10.12;70.70
50592;BME280;36548;50.506;30.834;2023-04-16T02:04:41;100569.57;;;10.15;70.73
50592;BME280;36548;50.506;30.834;2023-04-16T02:05:51;100566.09;;;10.13;70.07
50592;BME280;36548;50.506;30.834;2023-04-16T02:06:59;100570.33;;;10.17;70.31
50592;BME280;36548;50.506;30.834;2023-04-16T02:08:15;100567.83;;;10.30;70.19
50592;BME280;36548;50.506;30.834;2023-04-16T02:09:24;100570.18;;;10.20;70.50
50592;BME280;36548;50.506;30.834;2023-04-16T02:10:33;100563.84;;;10.21;70.67
50592;BME280;36548;50.506;30.834;2023-04-16T02:11:42;100564.45;;;10.27;70.45
50592;BME280;36548;50.506;30.834;2023-04-16T02:12:59;100558.20;;;10.42;70.29
50592;BME280;36548;50.506;30.834;2023-04-16T02:14:08;100575.78;;;10.32;69.99
50592;BME280;36548;50.506;30.834;2023-04-16T02:15:24;100569.55;;;10.47;69.69
50592;BME280;36548;50.506;30.834;2023-04-16T02:16:35;100569.41;;;10.34;69.75
50592;BME280;36548;50.506;30.834;2023-04-16T02:17:51;100562.44;;;10.46;69.69
50592;BME280;36548;50.506;30.834;2023-04-16T02:19:04;100567.73;;;10.32;69.42
50592;BME280;36548;50.506;30.834;2023-04-16T02:20:16;100570.00;;;10.23;69.14
50592;BME280;36548;50.506;30.834;2023-04-16T02:21:32;100568.63;;;10.16;69.75
50592;BME280;36548;50.506;30.834;2023-04-16T02:22:42;100574.36;;;9.94;70.09
50592;BME280;36548;50.506;30.834;2023-04-16T02:23:57;100573.47;;;9.94;70.28
50592;BME280;36548;50.506;30.834;2023-04-16T02:25:09;100579.08;;;9.73;70.09
50592;BME280;36548;50.506;30.834;2023-04-16T02:26:46;100569.66;;;9.66;71.37
50592;BME280;36548;50.506;30.834;2023-04-16T02:27:57;100586.50;;;9.52;71.20
50592;BME280;36548;50.506;30.834;2023-04-16T02:29:13;100574.48;;;9.59;71.61
50592;BME280;36548;50.506;30.834;2023-04-16T02:30:28;100582.17;;;9.49;71.71
50592;BME280;36548;50.506;30.834;2023-04-16T02:31:44;100578.67;;;9.65;71.73
50592;BME280;36548;50.506;30.834;2023-04-16T02:32:55;100588.69;;;9.61;71.57
50592;BME280;36548;50.506;30.834;2023-04-16T02:34:05;100579.09;;;9.57;71.63
50592;BME280;36548;50.506;30.834;2023-04-16T02:35:14;100585.07;;;9.62;71.88
50592;BME280;36548;50.506;30.834;2023-04-16T02:36:29;100579.37;;;9.84;71.61
50592;BME280;36548;50.506;30.834;2023-04-16T02:37:39;100585.24;;;9.75;71.81
50592;BME280;36548;50.506;30.834;2023-04-16T02:38:49;100578.76;;;9.79;71.60
50592;BME280;36548;50.506;30.834;2023-04-16T02:39:58;100586.45;;;9.85;71.34
50592;BME280;36548;50.506;30.834;2023-04-16T02:41:13;100580.15;;;10.02;71.32
50592;BME280;36548;50.506;30.834;2023-04-16T02:42:23;100590.59;;;9.91;71.28
50592;BME280;36548;50.506;30.834;2023-04-16T02:43:38;100578.93;;;10.08;71.60
50592;BME280;36548;50.506;30.834;2023-04-16T02:44:48;100584.48;;;10.05;71.66
50592;BME280;36548;50.506;30.834;2023-04-16T02:45:57;100593.63;;;10.17;71.19
50592;BME280;36548;50.506;30.834;2023-04-16T02:47:08;100585.30;;;10.21;70.56
50592;BME280;36548;50.506;30.834;2023-04-16T02:48:23;100584.69;;;10.32;70.25
50592;BME280;36548;50.506;30.834;2023-04-16T02:49:33;100588.16;;;10.18;70.26
50592;BME280;36548;50.506;30.834;2023-04-16T02:50:50;100582.47;;;10.24;69.90
50592;BME280;36548;50.506;30.834;2023-04-16T02:51:59;100595.45;;;10.16;70.36
50592;BME280;36548;50.506;30.834;2023-04-16T02:53:15;100592.06;;;10.29;70.60
50592;BME280;36548;50.506;30.834;2023-04-16T02:54:24;100597.09;;;10.19;70.70
50592;BME280;36548;50.506;30.834;2023-04-16T02:55:40;100584.36;;;10.22;70.67
50592;BME280;36548;50.506;30.834;2023-04-16T02:56:49;100596.06;;;10.05;70.44
50592;BME280;36548;50.506;30.834;2023-04-16T02:58:06;100587.50;;;10.15;70.36
50592;BME280;36548;50.506;30.834;2023-04-16T02:59:16;100590.88;;;10.02;70.34
50592;BME280;36548;50.506;30.834;2023-04-16T03:00:32;100587.50;;;10.15;70.04
50592;BME280;36548;50.506;30.834;2023-04-16T03:01:42;100602.55;;;10.01;70.36
50592;BME280;36548;50.506;30.834;2023-04-16T03:02:51;100598.04;;;10.02;70.40
50592;BME280;36548;50.506;30.834;2023-04-16T03:04:07;100594.56;;;10.16;70.09
50592;BME280;36548;50.506;30.834;2023-04-16T03:05:16;100597.80;;;10.06;69.96
50592;BME280;36548;50.506;30.834;2023-04-16T03:06:27;100604.29;;;10.02;70.07
50592;BME280;36548;50.506;30.834;2023-04-16T03:07:42;100590.33;;;10.12;70.28
50592;BME280;36548;50.506;30.834;2023-04-16T03:08:51;100599.87;;;10.01;70.13
50592;BME280;36548;50.506;30.834;2023-04-16T03:10:01;100598.58;;;9.93;70.22
50592;BME280;36548;50.506;30.834;2023-04-16T03:11:36;100605.73;;;9.92;71.22
50592;BME280;36548;50.506;30.834;2023-04-16T03:12:46;100607.13;;;9.83;71.29
50592;BME280;36548;50.506;30.834;2023-04-16T03:13:54;100604.27;;;9.86;70.92
50592;BME280;36548;50.506;30.834;2023-04-16T03:15:11;100606.95;;;9.86;71.02
50592;BME280;36548;50.506;30.834;2023-04-16T03:16:20;100610.42;;;9.88;71.08
50592;BME280;36548;50.506;30.834;2023-04-16T03:17:31;100608.33;;;9.94;70.87
50592;BME280;36548;50.506;30.834;2023-04-16T03:18:42;100615.25;;;9.98;70.50
50592;BME280;36548;50.506;30.834;2023-04-16T03:19:57;100614.47;;;10.12;70.56
50592;BME280;36548;50.506;30.834;2023-04-16T03:21:07;100613.09;;;10.04;70.46
50592;BME280;36548;50.506;30.834;2023-04-16T03:22:22;100607.83;;;10.19;70.22
50592;BME280;36548;50.506;30.834;2023-04-16T03:23:32;100607.73;;;10.04;70.33
50592;BME280;36548;50.506;30.834;2023-04-16T03:24:49;100612.41;;;10.17;70.60
50592;BME280;36548;50.506;30.834;2023-04-16T03:25:59;100621.94;;;10.06;70.48
50592;BME280;36548;50.506;30.834;2023-04-16T03:27:09;100621.84;;;10.08;70.87
50592;BME280;36548;50.506;30.834;2023-04-16T03:28:19;100624.17;;;10.14;70.55
50592;BME280;36548;50.506;30.834;2023-04-16T03:29:29;100622.28;;;10.16;70.36
50592;BME280;36548;50.506;30.834;2023-04-16T03:30:50;100620.03;;;10.24;70.15
50592;BME280;36548;50.506;30.834;2023-04-16T03:32:00;100623.13;;;10.17;70.44
50592;BME280;36548;50.506;30.834;2023-04-16T03:33:15;100615.88;;;10.35;69.83
50592;BME280;36548;50.506;30.834;2023-04-16T03:34:24;100618.38;;;10.22;69.64
50592;BME280;36548;50.506;30.834;2023-04-16T03:35:39;100625.20;;;10.28;69.93
50592;BME280;36548;50.506;30.834;2023-04-16T03:36:48;100632.22;;;10.14;69.80
50592;BME280;36548;50.506;30.834;2023-04-16T03:38:03;100624.88;;;10.18;69.45
50592;BME280;36548;50.506;30.834;2023-04-16T03:39:13;100631.70;;;9.92;69.99
50592;BME280;36548;50.506;30.834;2023-04-16T03:40:48;100628.58;;;9.83;70.33
50592;BME280;36548;50.506;30.834;2023-04-16T03:41:58;100627.24;;;9.59;71.21
50592;BME280;36548;50.506;30.834;2023-04-16T03:43:07;100641.22;;;9.48;71.76
50592;BME280;36548;50.506;30.834;2023-04-16T03:44:22;100632.06;;;9.52;71.91
50592;BME280;36548;50.506;30.834;2023-04-16T03:45:32;100640.67;;;9.41;72.08
50592;BME280;36548;50.506;30.834;2023-04-16T03:46:48;100632.95;;;9.52;72.13
50592;BME280;36548;50.506;30.834;2023-04-16T03:47:57;100634.20;;;9.45;72.37
50592;BME280;36548;50.506;30.834;2023-04-16T03:49:20;100621.88;;;9.59;72.53
50592;BME280;36548;50.506;30.834;2023-04-16T03:50:30;100639.96;;;9.55;72.47
50592;BME280;36548;50.506;30.834;2023-04-16T03:51:45;100629.08;;;9.74;72.97
50592;BME280;36548;50.506;30.834;2023-04-16T03:52:55;100642.39;;;9.76;72.20
50592;BME280;36548;50.506;30.834;2023-04-16T03:54:10;100631.97;;;9.87;72.38
50592;BME280;36548;50.506;30.834;2023-04-16T03:55:19;100643.64;;;9.86;71.94
50592;BME280;36548;50.506;30.834;2023-04-16T03:56:34;100631.25;;;9.99;72.05
50592;BME280;36548;50.506;30.834;2023-04-16T03:57:44;100641.40;;;9.94;71.88
50592;BME280;36548;50.506;30.834;2023-04-16T03:58:55;100648.32;;;9.98;71.62
50592;BME280;36548;50.506;30.834;2023-04-16T04:00:06;100639.92;;;10.04;71.29
50592;BME280;36548;50.506;30.834;2023-04-16T04:01:23;100632.12;;;10.16;71.04
50592;BME280;36548;50.506;30.834;2023-04-16T04:02:33;100640.80;;;10.05;71.05
50592;BME280;36548;50.506;30.834;2023-04-16T04:03:48;100638.38;;;10.16;71.03
50592;BME280;36548;50.506;30.834;2023-04-16T04:04:58;100643.48;;;10.05;71.06
50592;BME280;36548;50.506;30.834;2023-04-16T04:06:14;100634.72;;;10.17;71.00
50592;BME280;36548;50.506;30.834;2023-04-16T04:07:23;100642.42;;;10.07;71.08
50592;BME280;36548;50.506;30.834;2023-04-16T04:08:39;100645.39;;;10.19;71.04
50592;BME280;36548;50.506;30.834;2023-04-16T04:09:48;100639.59;;;10.11;71.32
50592;BME280;36548;50.506;30.834;2023-04-16T04:11:04;100640.52;;;10.26;71.33
50592;BME280;36548;50.506;30.834;2023-04-16T04:12:14;100646.16;;;10.21;71.14
50592;BME280;36548;50.506;30.834;2023-04-16T04:13:24;100645.03;;;10.25;71.04
50592;BME280;36548;50.506;30.834;2023-04-16T04:14:33;100648.56;;;10.26;70.79
50592;BME280;36548;50.506;30.834;2023-04-16T04:15:51;100644.88;;;10.44;70.33
50592;BME280;36548;50.506;30.834;2023-04-16T04:17:02;100647.34;;;10.31;70.12
50592;BME280;36548;50.506;30.834;2023-04-16T04:18:18;100641.58;;;10.39;70.29
50592;BME280;36548;50.506;30.834;2023-04-16T04:19:27;100646.77;;;10.26;70.54
50592;BME280;36548;50.506;30.834;2023-04-16T04:20:39;100646.91;;;10.23;70.53
50592;BME280;36548;50.506;30.834;2023-04-16T04:21:48;100644.08;;;10.26;70.34
50592;BME280;36548;50.506;30.834;2023-04-16T04:23:03;100640.64;;;10.40;70.21
50592;BME280;36548;50.506;30.834;2023-04-16T04:24:12;100644.94;;;10.27;70.55
50592;BME280;36548;50.506;30.834;2023-04-16T04:25:27;100643.99;;;10.44;70.55
50592;BME280;36548;50.506;30.834;2023-04-16T04:26:36;100650.91;;;10.32;70.30
50592;BME280;36548;50.506;30.834;2023-04-16T04:27:45;100645.45;;;10.33;70.03
50592;BME280;36548;50.506;30.834;2023-04-16T04:29:00;100643.84;;;10.47;69.64
50592;BME280;36548;50.506;30.834;2023-04-16T04:30:11;100651.00;;;10.30;69.91
50592;BME280;36548;50.506;30.834;2023-04-16T04:31:22;100653.78;;;10.29;69.73
50592;BME280;36548;50.506;30.834;2023-04-16T04:32:37;100650.83;;;10.33;69.99
50592;BME280;36548;50.506;30.834;2023-04-16T04:33:47;100648.22;;;10.16;70.04
50592;BME280;36548;50.506;30.834;2023-04-16T04:35:03;100635.78;;;10.15;69.88
50592;BME280;36548;50.506;30.834;2023-04-16T04:36:13;100654.72;;;9.96;69.89
50592;BME280;36548;50.506;30.834;2023-04-16T04:37:28;100645.20;;;9.90;70.33
50592;BME280;36548;50.506;30.834;2023-04-16T04:38:37;100664.19;;;9.69;70.58
50592;BME280;36548;50.506;30.834;2023-04-16T04:39:45;100649.80;;;9.54;71.86
50592;BME280;36548;50.506;30.834;2023-04-16T04:41:01;100659.23;;;9.62;71.81
50592;BME280;36548;50.506;30.834;2023-04-16T04:42:12;100658.86;;;9.52;71.78
50592;BME280;36548;50.506;30.834;2023-04-16T04:43:22;100646.34;;;9.52;71.84
50592;BME280;36548;50.506;30.834;2023-04-16T04:44:38;100650.08;;;9.66;72.02
50592;BME280;36548;50.506;30.834;2023-04-16T04:45:49;100647.92;;;9.57;72.04
50592;BME280;36548;50.506;30.834;2023-04-16T04:47:04;100643.42;;;9.73;72.25
50592;BME280;36548;50.506;30.834;2023-04-16T04:48:12;100653.64;;;9.66;72.34
50592;BME280;36548;50.506;30.834;2023-04-16T04:49:21;100650.61;;;9.72;72.39
50592;BME280;36548;50.506;30.834;2023-04-16T04:50:38;100644.31;;;9.89;72.31
50592;BME280;36548;50.506;30.834;2023-04-16T04:51:49;100658.78;;;9.87;71.78
50592;BME280;36548;50.506;30.834;2023-04-16T04:52:59;100661.38;;;9.88;71.83
50592;BME280;36548;50.506;30.834;2023-04-16T04:54:16;100640.95;;;10.02;71.59
50592;BME280;36548;50.506;30.834;2023-04-16T04:55:25;100658.52;;;9.92;71.86
50592;BME280;36548;50.506;30.834;2023-04-16T04:56:35;100664.41;;;9.98;71.68
50592;BME280;36548;50.506;30.834;2023-04-16T04:57:50;100647.45;;;10.14;71.21
50592;BME280;36548;50.506;30.834;2023-04-16T04:58:59;100657.93;;;10.02;70.98
50592;BME280;36548;50.506;30.834;2023-04-16T05:00:16;100649.44;;;10.10;71.27
50592;BME280;36548;50.506;30.834;2023-04-16T05:01:28;100654.36;;;10.02;71.34
50592;BME280;36548;50.506;30.834;2023-04-16T05:02:38;100651.45;;;10.06;70.98
50592;BME280;36548;50.506;30.834;2023-04-16T05:03:48;100659.58;;;10.05;70.92
50592;BME280;36548;50.506;30.834;2023-04-16T05:05:04;100652.83;;;10.14;71.25
50592;BME280;36548;50.506;30.834;2023-04-16T05:06:14;100665.00;;;10.03;71.36
50592;BME280;36548;50.506;30.834;2023-04-16T05:07:31;100658.86;;;10.17;71.37
50592;BME280;36548;50.506;30.834;2023-04-16T05:08:40;100660.95;;;10.12;70.90
50592;BME280;36548;50.506;30.834;2023-04-16T05:09:55;100656.88;;;10.21;70.79
50592;BME280;36548;50.506;30.834;2023-04-16T05:11:04;100670.04;;;10.10;70.67
50592;BME280;36548;50.506;30.834;2023-04-16T05:12:20;100659.75;;;10.18;70.92
50592;BME280;36548;50.506;30.834;2023-04-16T05:13:29;100656.80;;;10.06;71.34
50592;BME280;36548;50.506;30.834;2023-04-16T05:14:38;100669.95;;;10.11;71.09
50592;BME280;36548;50.506;30.834;2023-04-16T05:15:53;100658.53;;;10.23;70.84
50592;BME280;36548;50.506;30.834;2023-04-16T05:17:02;100659.98;;;10.13;70.79
50592;BME280;36548;50.506;30.834;2023-04-16T05:18:11;100668.92;;;10.14;70.52
50592;BME280;36548;50.506;30.834;2023-04-16T05:19:27;100651.52;;;10.21;70.68
50592;BME280;36548;50.506;30.834;2023-04-16T05:20:36;100661.46;;;10.03;70.62
50592;BME280;36548;50.506;30.834;2023-04-16T05:21:58;100659.75;;;10.18;71.01
50592;BME280;36548;50.506;30.834;2023-04-16T05:23:10;100668.21;;;10.10;70.99
50592;BME280;36548;50.506;30.834;2023-04-16T05:24:26;100657.92;;;10.18;71.40
50592;BME280;36548;50.506;30.834;2023-04-16T05:25:38;100670.13;;;10.08;71.15
50592;BME280;36548;50.506;30.834;2023-04-16T05:26:53;100657.73;;;10.21;71.34
50592;BME280;36548;50.506;30.834;2023-04-16T05:28:03;100671.51;;;10.15;71.44
50592;BME280;36548;50.506;30.834;2023-04-16T05:29:12;100666.77;;;10.20;71.11
50592;BME280;36548;50.506;30.834;2023-04-16T05:30:23;100665.78;;;10.21;71.20
50592;BME280;36548;50.506;30.834;2023-04-16T05:31:34;100663.90;;;10.23;71.00
50592;BME280;36548;50.506;30.834;2023-04-16T05:32:52;100669.36;;;10.38;70.83
50592;BME280;36548;50.506;30.834;2023-04-16T05:34:01;100670.73;;;10.29;70.44
50592;BME280;36548;50.506;30.834;2023-04-16T05:35:17;100670.07;;;10.42;70.32
50592;BME280;36548;50.506;30.834;2023-04-16T05:36:28;100672.62;;;10.27;69.97
50592;BME280;36548;50.506;30.834;2023-04-16T05:37:38;100671.86;;;10.25;70.12
50592;BME280;36548;50.506;30.834;2023-04-16T05:38:53;100667.78;;;10.34;70.15
50592;BME280;36548;50.506;30.834;2023-04-16T05:40:02;100664.93;;;10.21;70.04
50592;BME280;36548;50.506;30.834;2023-04-16T05:41:17;100660.42;;;10.21;70.06
50592;BME280;36548;50.506;30.834;2023-04-16T05:42:26;100672.10;;;10.04;70.07
50592;BME280;36548;50.506;30.834;2023-04-16T05:43:41;100664.85;;;10.06;70.56
50592;BME280;36548;50.506;30.834;2023-04-16T05:44:50;100669.92;;;9.95;70.54
50592;BME280;36548;50.506;30.834;2023-04-16T05:45:59;100679.09;;;9.91;70.88
50592;BME280;36548;50.506;30.834;2023-04-16T05:47:36;100668.48;;;10.05;71.10
50592;BME280;36548;50.506;30.834;2023-04-16T05:48:45;100672.19;;;10.03;70.78
50592;BME280;36548;50.506;30.834;2023-04-16T05:49:55;100675.73;;;10.03;70.35
50592;BME280;36548;50.506;30.834;2023-04-16T05:51:05;100680.95;;;10.06;70.31
50592;BME280;36548;50.506;30.834;2023-04-16T05:52:20;100677.81;;;10.14;70.23
50592;BME280;36548;50.506;30.834;2023-04-16T05:53:28;100681.27;;;10.00;70.30
50592;BME280;36548;50.506;30.834;2023-04-16T05:54:38;100677.11;;;9.95;70.61
50592;BME280;36548;50.506;30.834;2023-04-16T05:55:48;100681.53;;;9.96;70.75
50592;BME280;36548;50.506;30.834;2023-04-16T05:57:03;100675.49;;;10.08;70.71
50592;BME280;36548;50.506;30.834;2023-04-16T05:58:12;100677.02;;;9.96;70.83
50592;BME280;36548;50.506;30.834;2023-04-16T05:59:27;100671.60;;;10.14;70.49
50592;BME280;36548;50.506;30.834;2023-04-16T06:00:36;100686.45;;;10.03;70.40
50592;BME280;36548;50.506;30.834;2023-04-16T06:01:46;100685.88;;;9.98;70.58
50592;BME280;36548;50.506;30.834;2023-04-16T06:03:01;100682.56;;;10.09;70.65
50592;BME280;36548;50.506;30.834;2023-04-16T06:04:11;100685.69;;;10.01;70.42
50592;BME280;36548;50.506;30.834;2023-04-16T06:05:27;100680.68;;;10.11;70.45
50592;BME280;36548;50.506;30.834;2023-04-16T06:06:39;100698.25;;;10.01;70.33
50592;BME280;36548;50.506;30.834;2023-04-16T06:07:54;100685.25;;;10.09;70.46
50592;BME280;36548;50.506;30.834;2023-04-16T06:09:03;100694.86;;;9.97;70.57
50592;BME280;36548;50.506;30.834;2023-04-16T06:10:13;100694.86;;;9.97;70.67
50592;BME280;36548;50.506;30.834;2023-04-16T06:11:22;100698.39;;;9.98;70.70
50592;BME280;36548;50.506;30.834;2023-04-16T06:12:37;100700.66;;;10.05;71.02
50592;BME280;36548;50.506;30.834;2023-04-16T06:13:46;100698.57;;;9.95;71.21
50592;BME280;36548;50.506;30.834;2023-04-16T06:15:02;100698.66;;;10.09;71.14